createdAt,value
2018-07-01T00:02:25.444Z,15.20
2018-07-01T00:04:53.695Z,15.20
2018-07-01T00:07:22.025Z,15.20
2018-07-01T00:09:50.251Z,15.10
2018-07-01T00:14:46.851Z,15.00
2018-07-01T00:17:18.913Z,15.10
2018-07-01T00:19:47.111Z,15.10
2018-07-01T00:22:15.371Z,15.10
2018-07-01T00:24:43.608Z,15.20
2018-07-01T00:27:11.847Z,15.10
2018-07-01T00:29:40.115Z,15.00
2018-07-01T00:32:08.368Z,15.00
2018-07-01T00:34:36.636Z,15.00
2018-07-01T00:37:05.019Z,15.00
2018-07-01T00:39:33.235Z,15.00
2018-07-01T00:42:01.492Z,14.90
2018-07-01T00:44:29.751Z,14.90
2018-07-01T00:46:58.023Z,14.90
2018-07-01T00:49:26.232Z,14.80
2018-07-01T00:51:54.499Z,14.80
2018-07-01T00:54:22.732Z,14.80
2018-07-01T00:56:51.479Z,14.80
2018-07-01T00:59:20.409Z,14.80
2018-07-01T01:01:48.779Z,14.70
2018-07-01T01:04:17.014Z,14.70
2018-07-01T01:06:45.277Z,14.70
2018-07-01T01:09:14.336Z,14.80
2018-07-01T01:11:42.599Z,14.80
2018-07-01T01:14:11.468Z,14.80
2018-07-01T01:16:39.699Z,14.80
2018-07-01T01:19:08.976Z,14.70
2018-07-01T01:21:37.646Z,14.70
2018-07-01T01:24:05.968Z,14.60
2018-07-01T01:26:34.423Z,14.40
2018-07-01T01:29:02.698Z,14.30
2018-07-01T01:31:31.150Z,14.30
2018-07-01T01:33:59.480Z,14.20
2018-07-01T01:36:30.032Z,14.10
2018-07-01T01:39:00.736Z,14.00
2018-07-01T01:41:35.871Z,14.00
2018-07-01T01:44:08.907Z,13.90
2018-07-01T01:46:41.520Z,13.90
2018-07-01T01:49:17.595Z,13.90
2018-07-01T01:51:56.721Z,13.70
2018-07-01T01:54:33.759Z,13.60
2018-07-01T01:57:07.084Z,13.60
2018-07-01T01:59:40.424Z,13.60
2018-07-01T02:02:15.930Z,13.60
2018-07-01T02:04:48.623Z,13.60
2018-07-01T02:07:22.127Z,13.60
2018-07-01T02:09:50.328Z,13.60
2018-07-01T02:12:18.647Z,13.50
2018-07-01T02:14:56.724Z,13.50
2018-07-01T02:17:30.387Z,13.50
2018-07-01T02:19:58.637Z,13.40
2018-07-01T02:22:34.187Z,13.40
2018-07-01T02:25:04.300Z,13.30
2018-07-01T02:27:32.520Z,13.30
2018-07-01T02:30:00.815Z,13.40
2018-07-01T02:32:29.066Z,13.40
2018-07-01T02:34:57.415Z,13.40
2018-07-01T02:37:25.628Z,13.30
2018-07-01T02:39:54.220Z,13.30
2018-07-01T02:42:22.473Z,13.20
2018-07-01T02:44:52.592Z,13.20
2018-07-01T02:47:20.846Z,13.10
2018-07-01T02:49:49.126Z,13.10
2018-07-01T02:54:45.865Z,13.10
2018-07-01T02:57:14.104Z,13.10
2018-07-01T02:59:42.340Z,13.10
2018-07-01T03:02:10.595Z,13.10
2018-07-01T03:04:38.833Z,13.10
2018-07-01T03:07:07.355Z,13.00
2018-07-01T03:09:35.568Z,13.00
2018-07-01T03:12:03.837Z,13.00
2018-07-01T03:14:32.093Z,13.00
2018-07-01T03:17:00.555Z,13.00
2018-07-01T03:19:29.023Z,13.00
2018-07-01T03:21:57.256Z,13.00
2018-07-01T03:24:25.500Z,12.90
2018-07-01T03:26:53.988Z,12.90
2018-07-01T03:29:22.195Z,12.90
2018-07-01T03:31:50.451Z,12.90
2018-07-01T03:34:18.660Z,12.80
2018-07-01T03:36:46.866Z,12.90
2018-07-01T03:39:15.138Z,12.90
2018-07-01T03:41:43.351Z,12.90
2018-07-01T03:44:11.576Z,12.90
2018-07-01T03:46:40.175Z,12.90
2018-07-01T03:49:08.876Z,12.90
2018-07-01T03:51:37.078Z,12.90
2018-07-01T03:54:05.986Z,13.00
2018-07-01T03:56:34.599Z,13.00
2018-07-01T03:59:02.864Z,13.00
2018-07-01T04:01:31.084Z,13.00
2018-07-01T04:03:59.311Z,13.00
2018-07-01T04:06:27.558Z,13.00
2018-07-01T04:08:55.825Z,13.10
2018-07-01T04:11:24.132Z,13.10
2018-07-01T04:13:52.477Z,13.20
2018-07-01T04:16:21.171Z,13.30
2018-07-01T04:18:49.410Z,13.40
2018-07-01T04:21:17.823Z,13.50
2018-07-01T04:23:46.099Z,13.60
2018-07-01T04:26:14.468Z,13.70
2018-07-01T04:28:42.695Z,13.80
2018-07-01T04:31:11.456Z,13.90
2018-07-01T04:33:39.604Z,13.90
2018-07-01T04:36:07.890Z,14.00
2018-07-01T04:38:36.095Z,14.10
2018-07-01T04:41:04.284Z,14.20
2018-07-01T04:46:00.688Z,15.00
2018-07-01T04:48:28.948Z,16.40
2018-07-01T04:50:57.147Z,17.80
2018-07-01T04:53:25.450Z,19.10
2018-07-01T04:55:54.571Z,20.20
2018-07-01T04:58:23.407Z,21.00
2018-07-01T05:00:51.680Z,21.70
2018-07-01T05:03:19.901Z,22.10
2018-07-01T05:05:48.136Z,22.60
2018-07-01T05:08:16.372Z,22.90
2018-07-01T05:10:44.655Z,23.70
2018-07-01T05:13:14.727Z,23.60
2018-07-01T05:15:42.991Z,23.70
2018-07-01T05:18:11.235Z,24.30
2018-07-01T05:20:39.407Z,24.70
2018-07-01T05:23:07.671Z,24.80
2018-07-01T05:25:35.931Z,24.60
2018-07-01T05:28:04.167Z,24.50
2018-07-01T05:30:32.435Z,24.60
2018-07-01T05:33:00.692Z,24.90
2018-07-01T05:35:28.943Z,25.00
2018-07-01T05:37:57.165Z,25.50
2018-07-01T05:40:25.354Z,25.50
2018-07-01T05:42:54.291Z,25.70
2018-07-01T05:45:22.533Z,25.40
2018-07-01T05:47:50.757Z,25.20
2018-07-01T05:50:20.956Z,24.70
2018-07-01T05:52:49.252Z,24.40
2018-07-01T05:55:17.548Z,24.20
2018-07-01T05:57:46.000Z,23.50
2018-07-01T06:00:14.203Z,23.60
2018-07-01T06:02:42.755Z,23.50
2018-07-01T06:05:11.000Z,23.70
2018-07-01T06:07:39.259Z,23.60
2018-07-01T06:10:07.542Z,23.80
2018-07-01T06:12:36.551Z,24.20
2018-07-01T06:15:05.646Z,24.30
2018-07-01T06:17:33.888Z,24.30
2018-07-01T06:20:02.059Z,23.80
2018-07-01T06:22:30.304Z,23.30
2018-07-01T06:25:00.352Z,23.60
2018-07-01T06:27:28.810Z,24.10
2018-07-01T06:29:57.087Z,24.10
2018-07-01T06:32:25.351Z,24.30
2018-07-01T06:34:53.615Z,24.50
2018-07-01T06:37:21.838Z,24.70
2018-07-01T06:39:50.055Z,24.90
2018-07-01T06:42:18.277Z,25.00
2018-07-01T06:44:46.573Z,24.30
2018-07-01T06:47:14.813Z,24.30
2018-07-01T06:49:43.044Z,24.10
2018-07-01T06:52:11.263Z,24.20
2018-07-01T06:54:39.525Z,24.40
2018-07-01T06:57:07.800Z,24.80
2018-07-01T06:59:37.949Z,25.30
2018-07-01T07:02:06.528Z,25.40
2018-07-01T07:04:34.823Z,25.00
2018-07-01T07:07:03.344Z,24.60
2018-07-01T07:09:31.575Z,24.30
2018-07-01T07:11:59.779Z,24.30
2018-07-01T07:14:28.046Z,24.10
2018-07-01T07:16:56.335Z,24.30
2018-07-01T07:19:24.933Z,24.60
2018-07-01T07:21:53.171Z,24.50
2018-07-01T07:24:21.459Z,24.50
2018-07-01T07:26:49.660Z,24.70
2018-07-01T07:29:17.927Z,24.50
2018-07-01T07:31:46.204Z,24.10
2018-07-01T07:34:15.114Z,23.60
2018-07-01T07:36:43.399Z,23.30
2018-07-01T07:39:12.325Z,23.20
2018-07-01T07:41:41.190Z,23.30
2018-07-01T07:44:09.951Z,23.90
2018-07-01T07:46:38.200Z,24.30
2018-07-01T07:49:06.438Z,24.60
2018-07-01T07:51:34.908Z,24.90
2018-07-01T07:54:03.192Z,25.00
2018-07-01T07:56:31.532Z,24.80
2018-07-01T07:58:59.791Z,25.10
2018-07-01T08:01:28.040Z,25.60
2018-07-01T08:03:56.241Z,25.50
2018-07-01T08:06:24.488Z,25.50
2018-07-01T08:08:52.753Z,25.50
2018-07-01T08:11:20.972Z,25.60
2018-07-01T08:13:49.215Z,25.50
2018-07-01T08:16:17.425Z,25.10
2018-07-01T08:18:45.712Z,24.80
2018-07-01T08:21:13.995Z,24.50
2018-07-01T08:26:10.163Z,25.00
2018-07-01T08:28:38.399Z,25.20
2018-07-01T08:31:06.596Z,25.10
2018-07-01T08:33:34.888Z,25.30
2018-07-01T08:36:03.131Z,25.30
2018-07-01T08:38:31.331Z,25.10
2018-07-01T08:40:59.605Z,24.90
2018-07-01T08:43:27.815Z,25.00
2018-07-01T08:45:56.078Z,24.90
2018-07-01T08:48:24.319Z,25.10
2018-07-01T08:50:52.532Z,25.20
2018-07-01T08:53:20.733Z,25.40
2018-07-01T08:55:49.008Z,25.80
2018-07-01T08:58:17.227Z,26.10
2018-07-01T09:00:45.466Z,26.60
2018-07-01T09:03:13.733Z,26.70
2018-07-01T09:05:41.953Z,26.20
2018-07-01T09:08:10.135Z,26.50
2018-07-01T09:10:38.361Z,26.70
2018-07-01T09:13:06.578Z,26.50
2018-07-01T09:15:34.795Z,26.20
2018-07-01T09:18:02.998Z,26.10
2018-07-01T09:20:31.244Z,26.20
2018-07-01T09:22:59.455Z,26.10
2018-07-01T09:25:27.647Z,26.50
2018-07-01T09:27:55.939Z,26.20
2018-07-01T09:30:24.112Z,26.00
2018-07-01T09:32:52.323Z,25.80
2018-07-01T09:35:20.763Z,26.10
2018-07-01T09:37:48.962Z,26.40
2018-07-01T09:40:17.229Z,26.80
2018-07-01T09:42:45.433Z,26.80
2018-07-01T09:45:13.680Z,26.90
2018-07-01T09:47:42.345Z,26.80
2018-07-01T09:50:10.619Z,26.40
2018-07-01T09:55:06.826Z,26.50
2018-07-01T09:57:35.118Z,27.00
2018-07-01T10:00:03.343Z,27.70
2018-07-01T10:02:31.762Z,27.80
2018-07-01T10:05:00.049Z,28.10
2018-07-01T10:07:28.342Z,28.10
2018-07-01T10:09:56.548Z,28.40
2018-07-01T10:12:25.203Z,28.10
2018-07-01T10:14:53.396Z,27.60
2018-07-01T10:17:21.628Z,27.70
2018-07-01T10:19:49.933Z,28.10
2018-07-01T10:22:18.222Z,28.60
2018-07-01T10:24:46.683Z,28.30
2018-07-01T10:27:14.918Z,28.10
2018-07-01T10:29:43.612Z,28.30
2018-07-01T10:32:11.842Z,28.50
2018-07-01T10:34:40.792Z,28.70
2018-07-01T10:37:09.183Z,28.60
2018-07-01T10:39:38.334Z,28.80
2018-07-01T10:42:06.572Z,28.90
2018-07-01T10:44:34.811Z,28.80
2018-07-01T10:47:03.119Z,29.00
2018-07-01T10:49:32.615Z,29.30
2018-07-01T10:52:01.704Z,28.90
2018-07-01T10:54:29.908Z,28.70
2018-07-01T10:56:58.257Z,28.30
2018-07-01T10:59:28.011Z,27.90
2018-07-01T11:04:24.278Z,28.20
2018-07-01T11:06:52.551Z,28.10
2018-07-01T11:09:20.783Z,28.50
2018-07-01T11:11:49.147Z,28.70
2018-07-01T11:14:17.350Z,28.40
2018-07-01T11:16:45.640Z,28.50
2018-07-01T11:19:13.931Z,28.40
2018-07-01T11:21:42.135Z,28.70
2018-07-01T11:26:38.519Z,28.20
2018-07-01T11:29:06.776Z,28.10
2018-07-01T11:31:35.502Z,27.90
2018-07-01T11:34:03.761Z,27.70
2018-07-01T11:36:31.971Z,27.60
2018-07-01T11:39:00.251Z,28.00
2018-07-01T11:41:28.523Z,28.50
2018-07-01T11:43:56.824Z,28.60
2018-07-01T11:46:25.121Z,28.90
2018-07-01T11:48:53.355Z,28.90
2018-07-01T11:51:22.596Z,28.40
2018-07-01T11:53:50.803Z,28.00
2018-07-01T11:56:18.979Z,28.00
2018-07-01T11:58:47.258Z,28.30
2018-07-01T12:01:15.463Z,28.20
2018-07-01T12:03:43.951Z,28.20
2018-07-01T12:06:12.511Z,28.60
2018-07-01T12:08:41.182Z,28.60
2018-07-01T12:11:09.423Z,28.60
2018-07-01T12:13:37.763Z,28.40
2018-07-01T12:16:05.993Z,28.10
2018-07-01T12:18:34.377Z,28.10
2018-07-01T12:21:02.577Z,28.10
2018-07-01T12:23:30.920Z,28.10
2018-07-01T12:25:59.109Z,28.00
2018-07-01T12:28:27.347Z,27.90
2018-07-01T12:30:55.606Z,27.80
2018-07-01T12:33:23.819Z,27.80
2018-07-01T12:35:52.068Z,27.80
2018-07-01T12:38:20.315Z,27.60
2018-07-01T12:40:48.811Z,27.60
2018-07-01T12:43:17.097Z,27.40
2018-07-01T12:45:45.335Z,27.60
2018-07-01T12:48:13.591Z,27.60
2018-07-01T12:50:41.827Z,27.80
2018-07-01T12:53:10.091Z,27.80
2018-07-01T12:55:38.357Z,27.80
2018-07-01T12:58:06.586Z,27.90
2018-07-01T13:00:34.846Z,28.30
2018-07-01T13:03:03.108Z,28.40
2018-07-01T13:05:32.196Z,28.20
2018-07-01T13:08:00.443Z,27.50
2018-07-01T13:10:30.637Z,27.50
2018-07-01T13:12:59.123Z,27.50
2018-07-01T13:15:28.014Z,27.40
2018-07-01T13:17:56.246Z,27.00
2018-07-01T13:20:25.434Z,27.10
2018-07-01T13:22:53.730Z,27.40
2018-07-01T13:25:22.116Z,27.90
2018-07-01T13:27:50.740Z,28.20
2018-07-01T13:30:18.987Z,28.70
2018-07-01T13:32:47.227Z,29.00
2018-07-01T13:35:15.408Z,28.80
2018-07-01T13:37:43.939Z,28.10
2018-07-01T13:40:12.203Z,27.90
2018-07-01T13:42:41.351Z,27.70
2018-07-01T13:45:10.230Z,27.90
2018-07-01T13:47:38.927Z,28.10
2018-07-01T13:50:07.423Z,28.40
2018-07-01T13:52:35.632Z,28.60
2018-07-01T13:55:04.148Z,28.50
2018-07-01T13:57:32.367Z,29.00
2018-07-01T14:00:01.400Z,29.40
2018-07-01T14:02:29.639Z,29.60
2018-07-01T14:04:57.852Z,29.60
2018-07-01T14:07:26.103Z,29.40
2018-07-01T14:09:54.640Z,29.30
2018-07-01T14:12:23.061Z,30.10
2018-07-01T14:14:51.338Z,31.10
2018-07-01T14:17:19.632Z,31.60
2018-07-01T14:19:47.941Z,31.70
2018-07-01T14:22:16.132Z,31.20
2018-07-01T14:24:44.779Z,31.30
2018-07-01T14:27:13.106Z,31.60
2018-07-01T14:29:41.328Z,31.60
2018-07-01T14:32:09.627Z,31.50
2018-07-01T14:34:38.192Z,31.70
2018-07-01T14:37:06.520Z,32.10
2018-07-01T14:39:34.781Z,31.50
2018-07-01T14:42:03.030Z,31.50
2018-07-01T14:44:31.293Z,30.80
2018-07-01T14:46:59.493Z,30.60
2018-07-01T14:49:27.720Z,31.10
2018-07-01T14:51:56.004Z,31.60
2018-07-01T14:54:24.240Z,32.00
2018-07-01T14:56:53.004Z,31.90
2018-07-01T14:59:21.219Z,32.20
2018-07-01T15:01:49.491Z,32.50
2018-07-01T15:04:17.722Z,32.80
2018-07-01T15:06:45.907Z,33.00
2018-07-01T15:09:14.796Z,32.70
2018-07-01T15:11:43.035Z,32.20
2018-07-01T15:14:11.307Z,31.40
2018-07-01T15:16:39.574Z,31.10
2018-07-01T15:19:07.877Z,30.90
2018-07-01T15:21:36.337Z,30.80
2018-07-01T15:24:04.607Z,31.10
2018-07-01T15:26:32.860Z,32.10
2018-07-01T15:29:01.169Z,31.50
2018-07-01T15:31:29.443Z,30.70
2018-07-01T15:33:57.729Z,30.60
2018-07-01T15:36:25.976Z,30.70
2018-07-01T15:38:54.251Z,30.80
2018-07-01T15:41:22.548Z,31.20
2018-07-01T15:43:50.829Z,32.10
2018-07-01T15:46:19.077Z,32.50
2018-07-01T15:48:47.426Z,32.10
2018-07-01T15:51:15.643Z,31.60
2018-07-01T15:53:43.908Z,31.60
2018-07-01T15:56:12.327Z,32.20
2018-07-01T15:58:40.584Z,32.40
2018-07-01T16:01:08.846Z,32.40
2018-07-01T16:03:37.247Z,32.50
2018-07-01T16:06:05.478Z,32.30
2018-07-01T16:08:33.954Z,31.90
2018-07-01T16:11:02.208Z,31.70
2018-07-01T16:13:30.431Z,31.70
2018-07-01T16:15:58.663Z,31.90
2018-07-01T16:18:26.892Z,32.10
2018-07-01T16:20:55.107Z,32.20
2018-07-01T16:23:23.358Z,32.30
2018-07-01T16:25:59.874Z,32.10
2018-07-01T16:28:33.586Z,32.30
2018-07-01T16:31:02.200Z,32.50
2018-07-01T16:35:58.427Z,31.90
2018-07-01T16:38:26.691Z,31.90
2018-07-01T16:40:54.963Z,32.70
2018-07-01T16:43:23.163Z,33.30
2018-07-01T16:45:51.472Z,33.60
2018-07-01T16:48:19.756Z,33.00
2018-07-01T16:50:48.012Z,31.90
2018-07-01T16:53:16.247Z,30.90
2018-07-01T16:55:45.133Z,30.70
2018-07-01T16:58:13.581Z,30.90
2018-07-01T17:00:41.862Z,30.40
2018-07-01T17:03:10.118Z,30.00
2018-07-01T17:05:38.427Z,29.40
2018-07-01T17:08:06.643Z,29.20
2018-07-01T17:10:34.847Z,29.20
2018-07-01T17:13:03.084Z,29.00
2018-07-01T17:15:31.344Z,28.90
2018-07-01T17:17:59.604Z,29.00
2018-07-01T17:20:27.891Z,29.30
2018-07-01T17:22:56.153Z,29.20
2018-07-01T17:25:24.382Z,28.30
2018-07-01T17:27:52.620Z,27.70
2018-07-01T17:30:20.875Z,27.00
2018-07-01T17:32:54.582Z,26.80
2018-07-01T17:35:22.839Z,26.90
2018-07-01T17:37:51.091Z,26.70
2018-07-01T17:40:19.383Z,26.30
2018-07-01T17:42:47.750Z,25.90
2018-07-01T17:45:15.932Z,25.70
2018-07-01T17:47:44.170Z,25.40
2018-07-01T17:50:12.996Z,25.20
2018-07-01T17:52:42.332Z,25.10
2018-07-01T17:55:10.667Z,25.00
2018-07-01T17:57:39.544Z,24.80
2018-07-01T18:00:07.792Z,24.80
2018-07-01T18:02:36.034Z,24.60
2018-07-01T18:05:05.168Z,24.50
2018-07-01T18:07:33.639Z,24.40
2018-07-01T18:10:02.968Z,24.30
2018-07-01T18:12:31.858Z,24.20
2018-07-01T18:15:00.617Z,24.20
2018-07-01T18:17:30.608Z,24.10
2018-07-01T18:19:59.160Z,24.00
2018-07-01T18:22:52.492Z,23.90
2018-07-01T18:25:06.910Z,23.80
2018-07-01T18:27:25.197Z,23.70
2018-07-01T18:29:53.749Z,23.50
2018-07-01T18:32:22.288Z,23.50
2018-07-01T18:34:50.939Z,23.40
2018-07-01T18:37:19.626Z,23.20
2018-07-01T18:39:48.208Z,23.10
2018-07-01T18:42:17.264Z,23.00
2018-07-01T18:44:46.673Z,22.90
2018-07-01T18:47:15.436Z,22.70
2018-07-01T18:49:43.948Z,22.70
2018-07-01T18:52:12.475Z,22.60
2018-07-01T18:54:41.035Z,22.50
2018-07-01T18:57:10.017Z,22.40
2018-07-01T18:59:38.541Z,22.40
2018-07-01T19:02:07.196Z,22.30
2018-07-01T19:04:35.790Z,22.10
2018-07-01T19:07:04.681Z,22.00
2018-07-01T19:09:33.459Z,21.90
2018-07-01T19:12:02.029Z,21.80
2018-07-01T19:14:30.862Z,21.60
2018-07-01T19:16:59.522Z,21.50
2018-07-01T19:19:28.067Z,21.30
2018-07-01T19:21:56.889Z,21.20
2018-07-01T19:24:25.781Z,21.10
2018-07-01T19:26:54.612Z,21.00
2018-07-01T19:29:23.155Z,20.90
2018-07-01T19:31:51.737Z,20.80
2018-07-01T19:34:20.427Z,20.60
2018-07-01T19:36:49.165Z,20.50
2018-07-01T19:39:18.105Z,20.30
2018-07-01T19:41:46.686Z,20.20
2018-07-01T19:44:15.476Z,20.20
2018-07-01T19:46:43.992Z,20.10
2018-07-01T19:49:12.833Z,20.00
2018-07-01T19:51:41.359Z,20.00
2018-07-01T19:54:09.909Z,19.90
2018-07-01T19:56:38.464Z,19.80
2018-07-01T19:59:06.956Z,19.70
2018-07-01T20:01:35.856Z,19.60
2018-07-01T20:04:05.195Z,19.50
2018-07-01T20:06:33.834Z,19.40
2018-07-01T20:09:02.400Z,19.40
2018-07-01T20:11:30.883Z,19.30
2018-07-01T20:14:00.191Z,19.30
2018-07-01T20:16:29.424Z,19.30
2018-07-01T20:18:57.744Z,19.20
2018-07-01T20:21:26.060Z,19.20
2018-07-01T20:23:54.341Z,19.20
2018-07-01T20:26:22.759Z,19.10
2018-07-01T20:28:51.408Z,19.00
2018-07-01T20:31:19.758Z,18.90
2018-07-01T20:33:48.198Z,18.90
2018-07-01T20:36:16.405Z,18.80
2018-07-01T20:38:44.675Z,18.80
2018-07-01T20:41:12.962Z,18.80
2018-07-01T20:43:42.171Z,18.70
2018-07-01T20:46:10.838Z,18.70
2018-07-01T20:48:39.416Z,18.70
2018-07-01T20:51:07.723Z,18.70
2018-07-01T20:53:36.158Z,18.70
2018-07-01T20:58:32.455Z,18.60
2018-07-01T21:01:00.732Z,18.50
2018-07-01T21:03:28.959Z,18.40
2018-07-01T21:05:57.184Z,18.30
2018-07-01T21:08:25.395Z,18.20
2018-07-01T21:10:53.716Z,18.10
2018-07-01T21:13:22.014Z,17.90
2018-07-01T21:15:50.226Z,17.90
2018-07-01T21:20:46.793Z,17.70
2018-07-01T21:23:15.048Z,17.70
2018-07-01T21:25:43.398Z,17.50
2018-07-01T21:28:11.544Z,17.50
2018-07-01T21:30:39.843Z,17.40
2018-07-01T21:33:08.069Z,17.30
2018-07-01T21:35:36.496Z,17.30
2018-07-01T21:38:04.783Z,17.30
2018-07-01T21:40:33.032Z,17.20
2018-07-01T21:43:01.272Z,17.10
2018-07-01T21:47:57.524Z,17.10
2018-07-01T21:50:25.851Z,17.00
2018-07-01T21:52:54.103Z,17.10
2018-07-01T21:55:22.376Z,17.00
2018-07-01T21:57:50.657Z,16.90
2018-07-01T22:00:24.310Z,16.80
2018-07-01T22:02:52.535Z,16.80
2018-07-01T22:05:20.802Z,16.80
2018-07-01T22:07:48.999Z,16.80
2018-07-01T22:10:29.592Z,16.70
2018-07-01T22:12:57.816Z,16.70
2018-07-01T22:15:37.542Z,16.70
2018-07-01T22:18:05.768Z,16.60
2018-07-01T22:20:33.991Z,16.60
2018-07-01T22:23:02.240Z,16.50
2018-07-01T22:25:30.878Z,16.40
2018-07-01T22:27:59.175Z,16.40
2018-07-01T22:30:27.396Z,16.50
2018-07-01T22:32:55.617Z,16.60
2018-07-01T22:35:23.845Z,16.70
2018-07-01T22:37:52.070Z,16.70
2018-07-01T22:40:20.945Z,16.70
2018-07-01T22:42:49.283Z,16.70
2018-07-01T22:45:17.491Z,16.60
2018-07-01T22:47:45.697Z,16.60
2018-07-01T22:50:13.935Z,16.60
2018-07-01T22:52:42.146Z,16.50
2018-07-01T22:55:10.327Z,16.40
2018-07-01T22:57:38.536Z,16.30
2018-07-01T23:00:07.098Z,16.10
2018-07-01T23:02:57.038Z,16.00
2018-07-01T23:05:25.580Z,16.00
2018-07-01T23:07:54.075Z,15.90
2018-07-01T23:10:23.393Z,15.80
2018-07-01T23:12:52.486Z,15.70
2018-07-01T23:15:20.764Z,15.60
2018-07-01T23:17:49.001Z,15.50
2018-07-01T23:20:17.288Z,15.50
2018-07-01T23:22:45.514Z,15.40
2018-07-01T23:25:14.456Z,15.30
2018-07-01T23:27:43.667Z,15.20
2018-07-01T23:30:12.257Z,15.20
2018-07-01T23:32:40.851Z,15.10
2018-07-01T23:35:09.218Z,15.10
2018-07-01T23:37:37.519Z,15.00
2018-07-01T23:40:05.962Z,14.90
2018-07-01T23:42:34.473Z,14.90
2018-07-01T23:45:02.948Z,14.90
2018-07-01T23:47:31.463Z,14.90
2018-07-01T23:50:01.291Z,14.80
2018-07-01T23:52:29.567Z,14.80
2018-07-01T23:54:57.826Z,14.80
2018-07-01T23:57:26.096Z,14.80
2018-07-01T23:59:54.361Z,14.80
